createdAt,value
2022-10-16T00:01:39.470Z,100382.53
2022-10-16T00:04:06.450Z,100380.72
2022-10-16T00:06:33.580Z,100384.41
2022-10-16T00:09:00.818Z,100378.25
2022-10-16T00:11:37.678Z,100376.41
2022-10-16T00:14:09.010Z,100370.34
2022-10-16T00:16:36.278Z,100371.97
2022-10-16T00:19:03.833Z,100374.59
2022-10-16T00:21:32.632Z,100380.94
2022-10-16T00:24:07.444Z,100377.28
2022-10-16T00:26:36.220Z,100373.81
2022-10-16T00:29:03.930Z,100367.91
2022-10-16T00:31:31.242Z,100374.03
2022-10-16T00:33:58.688Z,100377.41
2022-10-16T00:36:27.270Z,100375.69
2022-10-16T00:38:57.217Z,100378.56
2022-10-16T00:41:25.977Z,100386.66
2022-10-16T00:44:24.537Z,100377.81
2022-10-16T00:46:52.112Z,100376.75
2022-10-16T00:49:21.734Z,100383.22
2022-10-16T00:51:54.752Z,100389.50
2022-10-16T00:54:31.029Z,100398.38
2022-10-16T00:57:02.169Z,100390.72
2022-10-16T00:59:37.068Z,100374.88
2022-10-16T01:02:06.702Z,100400.41
2022-10-16T01:04:41.372Z,100404.06
2022-10-16T01:07:25.687Z,100398.03
2022-10-16T01:10:10.706Z,100405.66
2022-10-16T01:12:52.028Z,100409.09
2022-10-16T01:15:33.839Z,100410.72
2022-10-16T01:18:28.675Z,100408.00
2022-10-16T01:21:05.271Z,100405.00
2022-10-16T01:24:13.080Z,100409.09
2022-10-16T01:27:17.298Z,100392.19
2022-10-16T01:30:18.425Z,100411.75
2022-10-16T01:33:16.863Z,100416.34
2022-10-16T01:35:51.163Z,100419.72
2022-10-16T01:38:26.907Z,100407.25
2022-10-16T01:41:10.545Z,100417.91
2022-10-16T01:44:26.150Z,100417.69
2022-10-16T01:46:55.136Z,100418.69
2022-10-16T01:49:25.646Z,100415.19
2022-10-16T01:51:58.755Z,100407.25
2022-10-16T01:54:30.251Z,100407.31
2022-10-16T01:56:59.128Z,100397.28
2022-10-16T01:59:30.650Z,100410.81
2022-10-16T02:02:02.650Z,100412.47
2022-10-16T02:04:35.552Z,100417.88
2022-10-16T02:07:02.935Z,100415.81
2022-10-16T02:09:31.901Z,100414.09
2022-10-16T02:12:04.545Z,100413.16
2022-10-16T02:14:32.181Z,100410.63
2022-10-16T02:16:59.128Z,100410.50
2022-10-16T02:19:26.313Z,100406.59
2022-10-16T02:22:01.024Z,100412.09
2022-10-16T02:25:07.302Z,100402.94
2022-10-16T02:27:36.753Z,100409.53
2022-10-16T02:30:19.374Z,100403.97
2022-10-16T02:32:49.810Z,100414.44
2022-10-16T02:35:20.246Z,100411.06
2022-10-16T02:37:50.231Z,100421.66
2022-10-16T02:40:21.506Z,100413.81
2022-10-16T02:42:54.150Z,100416.16
2022-10-16T02:45:21.491Z,100419.66
2022-10-16T02:47:48.423Z,100419.66
2022-10-16T02:50:16.218Z,100417.94
2022-10-16T02:52:43.612Z,100423.41
2022-10-16T02:55:10.562Z,100427.13
2022-10-16T02:57:38.217Z,100426.16
2022-10-16T03:00:07.782Z,100427.78
2022-10-16T03:02:34.799Z,100427.84
2022-10-16T03:05:01.977Z,100430.75
2022-10-16T03:07:29.081Z,100434.13
2022-10-16T03:09:56.513Z,100431.31
2022-10-16T03:12:23.478Z,100444.94
2022-10-16T03:14:50.400Z,100444.59
2022-10-16T03:17:17.877Z,100450.16
2022-10-16T03:19:44.893Z,100438.50
2022-10-16T03:22:11.930Z,100447.44
2022-10-16T03:24:38.855Z,100447.16
2022-10-16T03:27:05.791Z,100452.72
2022-10-16T03:29:33.912Z,100452.63
2022-10-16T03:32:01.279Z,100450.69
2022-10-16T03:34:28.927Z,100451.88
2022-10-16T03:36:55.844Z,100449.81
2022-10-16T03:39:22.799Z,100451.34
2022-10-16T03:41:49.758Z,100447.16
2022-10-16T03:44:16.718Z,100449.91
2022-10-16T03:46:43.656Z,100455.81
2022-10-16T03:49:10.628Z,100459.41
2022-10-16T03:51:37.654Z,100456.06
2022-10-16T03:54:04.602Z,100454.28
2022-10-16T03:56:31.620Z,100455.03
2022-10-16T03:58:58.549Z,100460.44
2022-10-16T04:01:25.770Z,100451.44
2022-10-16T04:03:52.736Z,100461.97
2022-10-16T04:06:19.660Z,100456.56
2022-10-16T04:08:46.945Z,100452.88
2022-10-16T04:11:14.107Z,100455.63
2022-10-16T04:13:41.081Z,100456.19
2022-10-16T04:16:08.166Z,100462.19
2022-10-16T04:18:36.200Z,100469.56
2022-10-16T04:21:07.822Z,100459.88
2022-10-16T04:23:35.089Z,100463.19
2022-10-16T04:26:02.210Z,100467.50
2022-10-16T04:28:29.487Z,100465.84
2022-10-16T04:30:56.827Z,100464.78
2022-10-16T04:33:23.768Z,100474.41
2022-10-16T04:35:58.898Z,100469.09
2022-10-16T04:38:26.310Z,100455.56
2022-10-16T04:40:53.881Z,100469.84
2022-10-16T04:43:21.714Z,100477.44
2022-10-16T04:45:48.786Z,100469.94
2022-10-16T04:48:15.747Z,100478.66
2022-10-16T04:50:42.669Z,100481.06
2022-10-16T04:53:09.611Z,100489.16
2022-10-16T04:55:36.589Z,100490.81
2022-10-16T04:58:03.631Z,100474.50
2022-10-16T05:00:30.789Z,100489.56
2022-10-16T05:03:00.490Z,100486.59
2022-10-16T05:05:28.379Z,100486.69
2022-10-16T05:07:55.386Z,100496.56
2022-10-16T05:10:22.316Z,100502.53
2022-10-16T05:12:49.278Z,100519.28
2022-10-16T05:15:16.399Z,100516.44
2022-10-16T05:17:44.740Z,100516.81
2022-10-16T05:20:13.309Z,100513.91
2022-10-16T05:22:40.254Z,100510.63
2022-10-16T05:25:07.699Z,100512.19
2022-10-16T05:27:34.722Z,100508.03
2022-10-16T05:30:01.689Z,100518.84
2022-10-16T05:32:28.641Z,100504.44
2022-10-16T05:34:55.621Z,100510.03
2022-10-16T05:37:22.636Z,100510.91
2022-10-16T05:39:49.572Z,100509.50
2022-10-16T05:42:16.587Z,100512.88
2022-10-16T05:44:43.557Z,100514.88
2022-10-16T05:47:11.756Z,100510.75
2022-10-16T05:49:41.295Z,100521.88
2022-10-16T05:52:08.677Z,100520.22
2022-10-16T05:54:35.597Z,100525.72
2022-10-16T05:57:03.182Z,100535.66
2022-10-16T05:59:30.078Z,100529.88
2022-10-16T06:01:57.051Z,100529.59
2022-10-16T06:04:24.147Z,100540.53
2022-10-16T06:06:51.207Z,100536.06
2022-10-16T06:09:18.132Z,100541.38
2022-10-16T06:11:45.101Z,100546.22
2022-10-16T06:14:12.029Z,100544.75
2022-10-16T06:16:39.284Z,100544.75
2022-10-16T06:19:09.195Z,100548.97
2022-10-16T06:21:36.343Z,100548.38
2022-10-16T06:24:03.445Z,100542.50
2022-10-16T06:26:32.370Z,100543.06
2022-10-16T06:29:00.944Z,100547.09
2022-10-16T06:31:31.812Z,100550.72
2022-10-16T06:33:59.268Z,100556.03
2022-10-16T06:36:27.081Z,100561.03
2022-10-16T06:38:54.299Z,100560.84
2022-10-16T06:41:23.642Z,100558.31
2022-10-16T06:43:50.967Z,100572.97
2022-10-16T06:46:22.576Z,100561.94
2022-10-16T06:48:49.640Z,100561.47
2022-10-16T06:51:24.049Z,100565.16
2022-10-16T06:54:03.413Z,100565.88
2022-10-16T06:56:32.882Z,100567.91
2022-10-16T06:59:00.535Z,100575.25
2022-10-16T07:01:28.978Z,100568.75
2022-10-16T07:03:55.966Z,100568.00
2022-10-16T07:06:25.297Z,100571.69
2022-10-16T07:08:52.896Z,100582.75
2022-10-16T07:11:24.480Z,100587.94
2022-10-16T07:13:55.928Z,100587.88
2022-10-16T07:16:29.569Z,100594.44
2022-10-16T07:19:01.926Z,100595.22
2022-10-16T07:21:36.226Z,100594.09
2022-10-16T07:24:04.922Z,100591.25
2022-10-16T07:26:35.019Z,100593.03
2022-10-16T07:29:02.282Z,100596.31
2022-10-16T07:31:29.527Z,100580.13
2022-10-16T07:33:58.777Z,100578.34
2022-10-16T07:36:25.815Z,100583.78
2022-10-16T07:38:55.456Z,100572.66
2022-10-16T07:41:25.681Z,100569.91
2022-10-16T07:43:55.473Z,100570.25
2022-10-16T07:46:23.755Z,100565.72
2022-10-16T07:48:51.499Z,100582.69
2022-10-16T07:51:24.835Z,100595.25
2022-10-16T07:53:52.839Z,100581.00
2022-10-16T07:56:21.822Z,100589.78
2022-10-16T07:58:50.786Z,100583.59
2022-10-16T08:01:19.260Z,100595.22
2022-10-16T08:03:49.537Z,100595.28
2022-10-16T08:06:19.747Z,100600.63
2022-10-16T08:08:49.085Z,100607.75
2022-10-16T08:11:16.151Z,100613.94
2022-10-16T08:13:43.570Z,100605.75
2022-10-16T08:16:10.938Z,100609.44
2022-10-16T08:18:40.879Z,100607.69
2022-10-16T08:21:21.791Z,100610.25
2022-10-16T08:23:54.472Z,100607.56
2022-10-16T08:26:24.314Z,100600.38
2022-10-16T08:28:52.994Z,100609.31
2022-10-16T08:31:21.102Z,100614.59
2022-10-16T08:33:48.823Z,100624.19
2022-10-16T08:36:17.475Z,100625.41
2022-10-16T08:38:44.976Z,100629.75
2022-10-16T08:41:19.084Z,100623.41
2022-10-16T08:44:14.880Z,100625.13
2022-10-16T08:47:22.015Z,100620.78
2022-10-16T08:50:04.156Z,100624.63
2022-10-16T08:52:36.455Z,100630.56
2022-10-16T08:55:05.842Z,100624.75
2022-10-16T08:57:33.658Z,100629.63
2022-10-16T09:00:14.010Z,100629.75
2022-10-16T09:03:23.293Z,100624.69
2022-10-16T09:06:26.247Z,100638.78
2022-10-16T09:09:28.413Z,100634.47
2022-10-16T09:12:16.067Z,100631.91
2022-10-16T09:15:06.398Z,100622.50
2022-10-16T09:17:36.303Z,100617.56
2022-10-16T09:20:27.221Z,100626.56
2022-10-16T09:23:17.292Z,100631.47
2022-10-16T09:25:49.353Z,100617.84
2022-10-16T09:28:18.448Z,100618.88
2022-10-16T09:30:46.920Z,100613.75
2022-10-16T09:33:15.843Z,100618.63
2022-10-16T09:35:51.762Z,100627.41
2022-10-16T09:38:35.349Z,100621.53
2022-10-16T09:41:17.596Z,100628.13
2022-10-16T09:43:59.464Z,100624.41
2022-10-16T09:46:36.944Z,100623.31
2022-10-16T09:49:20.066Z,100634.91
2022-10-16T09:51:47.188Z,100632.28
2022-10-16T09:54:21.405Z,100631.66
2022-10-16T09:56:54.806Z,100629.59
2022-10-16T09:59:27.704Z,100636.81
2022-10-16T10:01:56.261Z,100633.97
2022-10-16T10:04:26.998Z,100630.31
2022-10-16T10:06:56.674Z,100640.22
2022-10-16T10:09:45.403Z,100632.94
2022-10-16T10:12:26.840Z,100621.50
2022-10-16T10:14:58.086Z,100627.72
2022-10-16T10:17:29.739Z,100627.75
2022-10-16T10:20:23.858Z,100611.38
2022-10-16T10:22:50.876Z,100618.88
2022-10-16T10:25:39.502Z,100610.56
2022-10-16T10:28:50.493Z,100604.47
2022-10-16T10:32:07.490Z,100609.38
2022-10-16T10:35:21.578Z,100610.97
2022-10-16T10:38:33.680Z,100619.34
2022-10-16T10:41:31.321Z,100609.19
2022-10-16T10:44:35.083Z,100613.13
2022-10-16T10:47:29.835Z,100608.53
2022-10-16T10:50:23.965Z,100609.75
2022-10-16T10:53:13.551Z,100607.97
2022-10-16T10:56:22.150Z,100608.13
2022-10-16T10:59:10.600Z,100614.25
2022-10-16T11:02:19.015Z,100610.78
2022-10-16T11:05:16.558Z,100602.59
2022-10-16T11:08:17.074Z,100615.13
2022-10-16T11:10:58.730Z,100610.63
2022-10-16T11:13:59.309Z,100611.44
2022-10-16T11:16:46.920Z,100605.38
2022-10-16T11:19:29.339Z,100609.09
2022-10-16T11:22:01.408Z,100605.50
2022-10-16T11:25:03.935Z,100595.75
2022-10-16T11:27:54.791Z,100609.72
2022-10-16T11:30:47.978Z,100615.84
2022-10-16T11:33:36.215Z,100615.97
2022-10-16T11:36:29.833Z,100619.69
2022-10-16T11:39:07.831Z,100612.63
2022-10-16T11:41:43.236Z,100616.81
2022-10-16T11:44:43.351Z,100611.44
2022-10-16T11:50:47.371Z,100609.88
2022-10-16T11:53:25.857Z,100607.13
2022-10-16T11:55:53.047Z,100599.06
2022-10-16T11:58:34.366Z,100596.59
2022-10-16T12:01:10.442Z,100603.63
2022-10-16T12:03:59.513Z,100598.41
2022-10-16T12:06:58.863Z,100614.38
2022-10-16T12:09:30.658Z,100601.00
2022-10-16T12:11:58.306Z,100609.19
2022-10-16T12:14:42.957Z,100621.75
2022-10-16T12:17:21.771Z,100621.63
2022-10-16T12:20:13.331Z,100623.47
2022-10-16T12:23:05.595Z,100624.31
2022-10-16T12:25:47.674Z,100616.22
2022-10-16T12:28:17.382Z,100619.75
2022-10-16T12:30:53.925Z,100619.72
2022-10-16T12:33:27.297Z,100619.72
2022-10-16T12:35:55.189Z,100626.06
2022-10-16T12:38:50.202Z,100622.56
2022-10-16T12:41:31.747Z,100627.84
2022-10-16T12:44:04.477Z,100634.34
2022-10-16T12:46:31.287Z,100635.13
2022-10-16T12:49:30.040Z,100645.97
2022-10-16T12:51:58.179Z,100637.00
2022-10-16T12:54:37.272Z,100632.50
2022-10-16T12:57:24.590Z,100628.94
2022-10-16T13:00:27.640Z,100626.34
2022-10-16T13:03:21.682Z,100630.81
2022-10-16T13:06:06.571Z,100629.94
2022-10-16T13:09:13.203Z,100629.91
2022-10-16T13:11:52.903Z,100640.72
2022-10-16T13:15:17.805Z,100642.44
2022-10-16T13:18:03.406Z,100655.88
2022-10-16T13:20:54.793Z,100653.19
2022-10-16T13:23:37.309Z,100657.69
2022-10-16T13:26:15.271Z,100657.75
2022-10-16T13:28:42.338Z,100662.19
2022-10-16T13:31:21.412Z,100663.09
2022-10-16T13:33:56.007Z,100658.63
2022-10-16T13:36:29.160Z,100655.06
2022-10-16T13:39:21.979Z,100656.00
2022-10-16T13:42:03.512Z,100660.47
2022-10-16T13:44:49.635Z,100665.84
2022-10-16T13:47:26.268Z,100664.06
2022-10-16T13:50:15.432Z,100665.78
2022-10-16T13:52:42.572Z,100667.56
2022-10-16T13:55:18.881Z,100661.38
2022-10-16T13:57:46.500Z,100645.28
2022-10-16T14:00:19.605Z,100651.50
2022-10-16T14:02:52.246Z,100650.59
2022-10-16T14:05:19.199Z,100648.81
2022-10-16T14:07:52.642Z,100666.72
2022-10-16T14:10:33.697Z,100659.56
2022-10-16T14:13:09.287Z,100654.19
2022-10-16T14:15:37.723Z,100654.22
2022-10-16T14:18:05.343Z,100663.09
2022-10-16T14:20:35.259Z,100663.13
2022-10-16T14:23:20.160Z,100669.41
2022-10-16T14:25:47.656Z,100667.59
2022-10-16T14:28:14.476Z,100672.09
2022-10-16T14:30:55.990Z,100681.88
2022-10-16T14:33:34.720Z,100671.16
2022-10-16T14:36:10.505Z,100672.97
2022-10-16T14:38:40.345Z,100677.41
2022-10-16T14:41:08.013Z,100678.31
2022-10-16T14:43:41.111Z,100684.53
2022-10-16T14:46:15.252Z,100687.25
2022-10-16T14:48:50.801Z,100686.38
2022-10-16T14:51:20.796Z,100680.13
2022-10-16T14:53:48.208Z,100678.31
2022-10-16T14:56:22.061Z,100685.47
2022-10-16T14:58:50.828Z,100689.94
2022-10-16T15:01:18.168Z,100686.38
2022-10-16T15:03:45.913Z,100687.25
2022-10-16T15:06:14.664Z,100681.00
2022-10-16T15:08:42.425Z,100694.44
2022-10-16T15:11:18.981Z,100696.22
2022-10-16T15:13:47.382Z,100696.19
2022-10-16T15:16:17.368Z,100695.31
2022-10-16T15:18:44.772Z,100698.84
2022-10-16T15:21:28.601Z,100701.53
2022-10-16T15:23:57.497Z,100695.28
2022-10-16T15:26:29.512Z,100704.16
2022-10-16T15:28:57.329Z,100697.94
2022-10-16T15:31:25.170Z,100697.94
2022-10-16T15:33:57.147Z,100697.91
2022-10-16T15:36:29.720Z,100697.06
2022-10-16T15:38:57.081Z,100704.16
2022-10-16T15:41:24.280Z,100709.53
2022-10-16T15:43:51.829Z,100714.88
2022-10-16T15:46:24.159Z,100705.06
2022-10-16T15:48:52.405Z,100714.88
2022-10-16T15:51:19.790Z,100710.41
2022-10-16T15:53:47.512Z,100705.94
2022-10-16T15:56:15.482Z,100713.97
2022-10-16T15:58:42.776Z,100713.06
2022-10-16T16:01:11.494Z,100718.38
2022-10-16T16:03:41.579Z,100714.84
2022-10-16T16:06:11.834Z,100721.97
2022-10-16T16:08:39.891Z,100726.41
2022-10-16T16:11:12.596Z,100725.50
2022-10-16T16:13:41.050Z,100734.44
2022-10-16T16:16:13.425Z,100737.97
2022-10-16T16:18:41.073Z,100729.94
2022-10-16T16:21:08.870Z,100737.97
2022-10-16T16:23:36.214Z,100742.38
2022-10-16T16:26:15.461Z,100753.94
2022-10-16T16:28:44.086Z,100752.16
2022-10-16T16:31:11.331Z,100766.53
2022-10-16T16:33:38.403Z,100766.47
2022-10-16T16:36:11.513Z,100770.91
2022-10-16T16:38:41.667Z,100761.88
2022-10-16T16:41:26.821Z,100779.75
2022-10-16T16:43:55.528Z,100780.66
2022-10-16T16:46:22.952Z,100785.06
2022-10-16T16:48:54.525Z,100783.41
2022-10-16T16:51:21.556Z,100780.59
2022-10-16T16:53:51.814Z,100782.31
2022-10-16T16:56:20.093Z,100774.44
2022-10-16T16:58:51.173Z,100793.06
2022-10-16T17:01:20.678Z,100790.50
2022-10-16T17:03:52.768Z,100780.59
2022-10-16T17:06:22.988Z,100788.56
2022-10-16T17:08:50.964Z,100790.28
2022-10-16T17:11:22.851Z,100797.41
2022-10-16T17:13:56.457Z,100800.13
2022-10-16T17:16:32.249Z,100803.59
2022-10-16T17:19:06.157Z,100809.06
2022-10-16T17:21:33.485Z,100812.50
2022-10-16T17:24:01.607Z,100815.09
2022-10-16T17:26:29.208Z,100815.06
2022-10-16T17:28:59.616Z,100817.78
2022-10-16T17:31:33.901Z,100819.56
2022-10-16T17:34:04.646Z,100823.97
2022-10-16T17:36:35.020Z,100820.38
2022-10-16T17:39:09.078Z,100831.97
2022-10-16T17:41:36.913Z,100832.00
2022-10-16T17:44:05.380Z,100828.41
2022-10-16T17:46:36.953Z,100834.63
2022-10-16T17:49:07.217Z,100838.13
2022-10-16T17:51:34.231Z,100844.44
2022-10-16T17:54:02.648Z,100850.63
2022-10-16T17:56:31.274Z,100850.63
2022-10-16T17:59:01.774Z,100847.13
2022-10-16T18:01:32.573Z,100858.59
2022-10-16T18:04:07.436Z,100856.09
2022-10-16T18:06:35.363Z,100858.63
2022-10-16T18:09:04.393Z,100855.09
2022-10-16T18:11:31.612Z,100853.53
2022-10-16T18:14:00.257Z,100852.41
2022-10-16T18:16:30.436Z,100850.66
2022-10-16T18:18:59.050Z,100842.75
2022-10-16T18:21:28.002Z,100847.19
2022-10-16T18:23:55.439Z,100853.16
2022-10-16T18:26:23.645Z,100852.19
2022-10-16T18:28:55.952Z,100861.03
2022-10-16T18:31:23.745Z,100853.41
2022-10-16T18:33:51.471Z,100863.00
2022-10-16T18:36:32.380Z,100871.97
2022-10-16T18:39:01.024Z,100875.41
2022-10-16T18:41:29.208Z,100870.94
2022-10-16T18:43:56.483Z,100870.06
2022-10-16T18:46:25.453Z,100879.63
2022-10-16T18:48:54.332Z,100876.13
2022-10-16T18:51:31.320Z,100879.53
2022-10-16T18:54:04.985Z,100887.44
2022-10-16T18:56:32.813Z,100888.56
2022-10-16T18:59:02.458Z,100892.66
2022-10-16T19:01:32.657Z,100891.78
2022-10-16T19:04:07.205Z,100897.16
2022-10-16T19:06:42.834Z,100897.09
2022-10-16T19:09:10.987Z,100907.81
2022-10-16T19:11:41.619Z,100922.72
2022-10-16T19:14:10.489Z,100920.78
2022-10-16T19:16:38.127Z,100915.41
2022-10-16T19:19:08.857Z,100915.38
2022-10-16T19:21:39.747Z,100919.19
2022-10-16T19:24:08.302Z,100925.13
2022-10-16T19:26:38.114Z,100928.63
2022-10-16T19:29:09.221Z,100928.53
2022-10-16T19:31:36.550Z,100927.53
2022-10-16T19:34:06.760Z,100930.19
2022-10-16T19:36:38.422Z,100933.81
2022-10-16T19:39:13.511Z,100929.13
2022-10-16T19:41:41.257Z,100946.13
2022-10-16T19:44:13.162Z,100935.38
2022-10-16T19:46:40.065Z,100932.50
2022-10-16T19:49:12.351Z,100940.47
2022-10-16T19:51:40.291Z,100943.06
2022-10-16T19:54:11.981Z,100946.53
2022-10-16T19:56:39.233Z,100945.69
2022-10-16T19:59:08.779Z,100962.72
2022-10-16T20:01:35.850Z,100956.47
2022-10-16T20:04:02.804Z,100955.53
2022-10-16T20:06:29.741Z,100963.63
2022-10-16T20:08:58.321Z,100966.41
2022-10-16T20:11:29.276Z,100964.25
2022-10-16T20:13:56.996Z,100973.00
2022-10-16T20:16:24.691Z,100973.88
2022-10-16T20:18:52.819Z,100970.38
2022-10-16T20:21:27.024Z,100970.78
2022-10-16T20:23:54.093Z,100983.16
2022-10-16T20:26:25.911Z,100978.59
2022-10-16T20:28:54.428Z,100986.28
2022-10-16T20:31:28.276Z,100997.59
2022-10-16T20:33:57.662Z,100996.75
2022-10-16T20:36:26.805Z,101003.69
2022-10-16T20:38:54.256Z,101005.44
2022-10-16T20:41:22.604Z,101003.72
2022-10-16T20:43:52.283Z,101000.06
2022-10-16T20:46:23.538Z,101010.69
2022-10-16T20:48:52.496Z,101016.09
2022-10-16T20:51:26.225Z,101016.00
2022-10-16T20:54:04.309Z,101022.16
2022-10-16T20:56:33.991Z,101018.47
2022-10-16T20:59:01.103Z,101023.97
2022-10-16T21:01:31.057Z,101022.06
2022-10-16T21:04:02.033Z,101022.97
2022-10-16T21:06:31.696Z,101022.16
2022-10-16T21:09:02.941Z,101033.50
2022-10-16T21:11:33.814Z,101026.19
2022-10-16T21:14:03.659Z,101026.25
2022-10-16T21:16:31.894Z,101022.63
2022-10-16T21:18:58.991Z,101028.66
2022-10-16T21:21:33.022Z,101030.56
2022-10-16T21:24:00.902Z,101035.03
2022-10-16T21:26:30.210Z,101041.22
2022-10-16T21:28:59.397Z,101037.69
2022-10-16T21:31:27.295Z,101044.63
2022-10-16T21:33:55.433Z,101040.13
2022-10-16T21:36:32.124Z,101040.16
2022-10-16T21:39:06.297Z,101047.94
2022-10-16T21:41:34.397Z,101044.44
2022-10-16T21:44:02.261Z,101050.69
2022-10-16T21:46:33.174Z,101052.31
2022-10-16T21:49:02.932Z,101050.59
2022-10-16T21:51:34.297Z,101048.69
2022-10-16T21:54:03.464Z,101057.53
2022-10-16T21:56:30.674Z,101050.41
2022-10-16T21:58:58.018Z,101064.66
2022-10-16T22:01:27.500Z,101054.78
2022-10-16T22:03:55.267Z,101064.56
2022-10-16T22:06:25.615Z,101063.34
2022-10-16T22:08:56.255Z,101070.50
2022-10-16T22:11:36.959Z,101069.66
2022-10-16T22:14:09.686Z,101071.22
2022-10-16T22:16:37.452Z,101069.41
2022-10-16T22:19:07.446Z,101075.63
2022-10-16T22:21:40.241Z,101069.09
2022-10-16T22:24:07.966Z,101075.50
2022-10-16T22:26:36.191Z,101076.38
2022-10-16T22:29:03.948Z,101077.16
2022-10-16T22:31:31.001Z,101086.84
2022-10-16T22:34:03.403Z,101084.25
2022-10-16T22:36:31.498Z,101093.13
2022-10-16T22:38:59.343Z,101093.75
2022-10-16T22:41:26.720Z,101107.06
2022-10-16T22:43:53.979Z,101105.25
2022-10-16T22:46:27.461Z,101112.25
2022-10-16T22:48:55.983Z,101113.75
2022-10-16T22:51:25.063Z,101105.22
2022-10-16T22:53:52.072Z,101105.09
2022-10-16T22:56:20.985Z,101114.72
2022-10-16T22:58:47.990Z,101111.06
2022-10-16T23:01:31.182Z,101114.72
2022-10-16T23:03:58.265Z,101124.03
2022-10-16T23:06:25.402Z,101126.44
2022-10-16T23:08:55.685Z,101122.69
2022-10-16T23:11:23.319Z,101116.31
2022-10-16T23:13:50.693Z,101109.28
2022-10-16T23:16:20.287Z,101117.00
2022-10-16T23:18:48.525Z,101121.69
2022-10-16T23:21:22.578Z,101121.22
2022-10-16T23:23:51.208Z,101120.41
2022-10-16T23:26:26.522Z,101119.88
2022-10-16T23:28:56.062Z,101124.94
2022-10-16T23:31:23.166Z,101120.25
2022-10-16T23:33:50.178Z,101119.63
2022-10-16T23:36:20.423Z,101130.03
2022-10-16T23:38:48.917Z,101129.88
2022-10-16T23:41:17.274Z,101136.13
2022-10-16T23:43:44.267Z,101153.88
2022-10-16T23:46:12.887Z,101160.97
2022-10-16T23:48:40.606Z,101164.75
2022-10-16T23:51:10.051Z,101169.97
2022-10-16T23:53:37.632Z,101174.97
2022-10-16T23:56:05.256Z,101176.69
2022-10-16T23:58:32.225Z,101179.31
